Time;durP1;ratioP1;P1;durP2;ratioP2;P2;SDS_P1;SDS_P2;PMS_P1;PMS_P2;Temp;Humidity;BMP_temperature;BMP_pressure;BME280_temperature;BME280_humidity;BME280_pressure;Samples;Min_cycle;Max_cycle;Signal;HPM_P1;HPM_P2
2021/06/09 00:00:48;;;;;;;4.03;2.80;;;19.10;66.00;;;;;;4974943;28;20485;-74
2021/06/09 00:03:14;;;;;;;4.03;2.58;;;19.10;66.20;;;;;;4976016;28;20031;-74
2021/06/09 00:05:40;;;;;;;4.00;2.50;;;19.00;66.10;;;;;;4978382;28;20033;-74
2021/06/09 00:08:06;;;;;;;4.25;2.60;;;19.00;66.20;;;;;;4974614;28;20374;-75
2021/06/09 00:10:32;;;;;;;5.50;2.42;;;19.00;66.40;;;;;;4975237;28;20076;-75
2021/06/09 00:12:59;;;;;;;3.58;2.58;;;19.00;66.70;;;;;;4974300;28;20027;-75
2021/06/09 00:15:25;;;;;;;4.70;2.85;;;18.90;66.70;;;;;;4978268;28;20035;-74
2021/06/09 00:17:50;;;;;;;5.32;2.92;;;18.90;67.10;;;;;;4976064;28;20026;-74
2021/06/09 00:20:21;;;;;;;3.90;2.60;;;18.90;67.20;;;;;;4979117;28;20496;-74
2021/06/09 00:22:47;;;;;;;4.03;3.03;;;18.80;67.20;;;;;;4974181;28;20082;-74
2021/06/09 00:25:16;;;;;;;4.60;2.90;;;18.80;67.40;;;;;;4977241;28;20489;-74
2021/06/09 00:27:51;;;;;;;3.20;2.35;;;18.80;67.60;;;;;;4974341;28;20023;-75
2021/06/09 00:30:21;;;;;;;2.97;2.30;;;18.80;67.70;;;;;;4973396;28;20030;-74
2021/06/09 00:32:46;;;;;;;4.30;2.50;;;18.80;68.00;;;;;;4974227;28;20123;-74
2021/06/09 00:35:14;;;;;;;3.38;2.30;;;18.80;68.00;;;;;;4973706;28;20464;-75
2021/06/09 00:37:40;;;;;;;3.50;2.60;;;18.70;68.00;;;;;;4973027;28;20054;-75
2021/06/09 00:40:08;;;;;;;4.75;2.30;;;18.70;68.30;;;;;;4974811;28;20034;-75
2021/06/09 00:42:34;;;;;;;3.55;2.42;;;18.60;68.70;;;;;;4974117;28;20031;-74
2021/06/09 00:45:00;;;;;;;3.22;2.13;;;18.60;68.70;;;;;;4974692;28;20023;-74
2021/06/09 00:47:26;;;;;;;3.50;2.38;;;18.60;68.90;;;;;;4973429;28;20041;-75
2021/06/09 00:49:52;;;;;;;4.32;2.80;;;18.60;69.30;;;;;;4980229;28;20038;-74
2021/06/09 00:52:25;;;;;;;3.97;2.47;;;18.50;69.20;;;;;;4973227;28;20115;-75
2021/06/09 00:54:52;;;;;;;4.22;2.60;;;18.60;69.40;;;;;;4978136;28;20416;-74
2021/06/09 00:57:18;;;;;;;4.85;2.72;;;18.50;69.30;;;;;;4973047;28;20481;-74
2021/06/09 00:59:44;;;;;;;2.83;2.20;;;18.50;69.30;;;;;;4978898;28;20026;-75
2021/06/09 01:02:10;;;;;;;2.53;2.03;;;18.40;69.30;;;;;;4972790;28;20061;-74
2021/06/09 01:04:36;;;;;;;3.17;2.40;;;18.40;69.70;;;;;;4973067;28;20054;-74
2021/06/09 01:07:03;;;;;;;4.13;2.33;;;18.40;70.00;;;;;;4973215;28;20023;-75
2021/06/09 01:09:30;;;;;;;4.10;2.30;;;18.30;70.60;;;;;;4972762;28;20043;-75
2021/06/09 01:11:56;;;;;;;3.75;2.45;;;18.30;70.30;;;;;;4972852;28;20090;-74
2021/06/09 01:14:24;;;;;;;3.38;2.40;;;18.30;70.60;;;;;;4974004;28;20471;-74
2021/06/09 01:16:51;;;;;;;3.20;2.33;;;18.30;70.60;;;;;;4977631;28;20039;-74
2021/06/09 01:19:20;;;;;;;3.30;2.58;;;18.20;70.70;;;;;;4973617;28;20030;-75
2021/06/09 01:21:47;;;;;;;4.40;3.17;;;18.20;70.70;;;;;;4973077;28;20358;-75
2021/06/09 01:24:13;;;;;;;3.95;2.95;;;18.20;70.90;;;;;;4955919;28;20034;-75
2021/06/09 01:26:39;;;;;;;4.05;2.40;;;18.20;71.20;;;;;;4972336;28;20085;-75
2021/06/09 01:29:06;;;;;;;4.65;2.78;;;18.10;71.40;;;;;;4973213;28;20424;-74
2021/06/09 01:31:32;;;;;;;3.47;2.50;;;18.10;71.80;;;;;;4974246;28;20417;-75
2021/06/09 01:34:04;;;;;;;3.25;2.55;;;18.10;71.90;;;;;;4973327;28;20090;-75
2021/06/09 01:36:35;;;;;;;3.92;2.67;;;18.00;72.10;;;;;;4976092;28;20022;-74
2021/06/09 01:39:13;;;;;;;4.25;2.75;;;18.00;72.00;;;;;;4973081;28;20031;-74
2021/06/09 01:41:43;;;;;;;4.18;3.05;;;18.00;72.20;;;;;;4953979;28;20051;-75
2021/06/09 01:44:10;;;;;;;5.93;3.00;;;18.00;72.40;;;;;;4975145;28;20030;-74
2021/06/09 01:46:36;;;;;;;2.97;2.50;;;18.00;73.00;;;;;;4972925;28;20489;-75
2021/06/09 01:49:04;;;;;;;3.70;2.72;;;17.90;73.10;;;;;;4971649;28;20030;-74
2021/06/09 01:51:31;;;;;;;3.35;2.53;;;17.90;73.20;;;;;;4974486;28;20729;-75
2021/06/09 01:53:56;;;;;;;5.20;2.70;;;17.80;73.30;;;;;;4975324;28;20589;-75
2021/06/09 01:56:22;;;;;;;5.88;3.50;;;17.80;73.80;;;;;;4973512;28;20507;-74
2021/06/09 01:58:48;;;;;;;4.15;2.95;;;17.80;73.80;;;;;;4974173;28;20389;-74
2021/06/09 02:01:14;;;;;;;4.43;3.05;;;17.80;73.70;;;;;;4973010;28;20118;-75
2021/06/09 02:03:42;;;;;;;4.50;3.25;;;17.80;74.20;;;;;;4971550;28;20086;-75
2021/06/09 02:06:08;;;;;;;5.05;2.95;;;17.70;74.40;;;;;;4972679;28;20532;-74
2021/06/09 02:08:34;;;;;;;4.97;3.20;;;17.70;74.40;;;;;;4972571;28;20054;-74
2021/06/09 02:11:00;;;;;;;3.67;2.78;;;17.70;74.40;;;;;;4975128;28;20026;-74
2021/06/09 02:13:26;;;;;;;4.65;3.28;;;17.70;74.20;;;;;;4971739;28;20054;-75
2021/06/09 02:15:54;;;;;;;5.05;3.00;;;17.70;74.40;;;;;;4975557;28;20478;-77
2021/06/09 02:18:23;;;;;;;7.18;2.80;;;17.70;74.60;;;;;;4972113;28;20119;-74
2021/06/09 02:20:55;;;;;;;6.68;3.50;;;17.70;74.90;;;;;;4972796;28;20066;-75
2021/06/09 02:23:27;;;;;;;4.72;3.08;;;17.70;75.00;;;;;;4970764;28;20401;-74
2021/06/09 02:25:57;;;;;;;4.63;2.92;;;17.70;75.20;;;;;;4972379;28;20565;-75
2021/06/09 02:28:25;;;;;;;4.75;3.22;;;17.70;75.40;;;;;;4971504;28;20118;-75
2021/06/09 02:30:51;;;;;;;4.18;2.88;;;17.70;75.00;;;;;;4972364;28;20097;-75
2021/06/09 02:33:21;;;;;;;4.30;3.08;;;17.60;74.90;;;;;;4973633;28;20043;-75
2021/06/09 02:35:48;;;;;;;5.85;3.25;;;17.60;75.10;;;;;;4972930;28;20488;-74
2021/06/09 02:38:15;;;;;;;5.88;3.10;;;17.60;75.60;;;;;;4979049;28;20094;-75
2021/06/09 02:40:42;;;;;;;4.60;2.80;;;17.60;75.70;;;;;;4973108;28;20050;-75
2021/06/09 02:43:09;;;;;;;3.67;2.97;;;17.60;75.90;;;;;;4957255;28;20041;-75
2021/06/09 02:45:36;;;;;;;4.35;2.80;;;17.60;75.20;;;;;;4972107;28;20031;-74
2021/06/09 02:48:06;;;;;;;4.32;2.90;;;17.50;75.20;;;;;;4943964;28;20023;-75
2021/06/09 02:50:32;;;;;;;4.75;2.88;;;17.50;76.00;;;;;;4975747;28;20030;-77
2021/06/09 02:53:30;;;;;;;3.85;2.95;;;17.50;75.80;;;;;;4980469;28;20558;-75
2021/06/09 02:56:35;;;;;;;6.05;2.85;;;17.50;76.60;;;;;;4975406;28;20031;-75
2021/06/09 02:59:22;;;;;;;4.38;2.92;;;17.50;76.00;;;;;;4962463;28;20377;-74
2021/06/09 03:02:09;;;;;;;3.95;2.80;;;17.40;76.20;;;;;;4976821;28;20023;-75
2021/06/09 03:04:51;;;;;;;5.57;3.45;;;17.40;76.30;;;;;;4974646;28;20031;-75
2021/06/09 03:07:25;;;;;;;4.60;3.42;;;17.40;76.40;;;;;;4960405;28;20056;-75
2021/06/09 03:10:10;;;;;;;12.15;3.05;;;17.40;76.50;;;;;;4979731;28;20101;-75
2021/06/09 03:12:47;;;;;;;5.22;3.38;;;17.40;76.30;;;;;;4979184;28;20477;-75
2021/06/09 03:15:18;;;;;;;5.00;3.03;;;17.40;75.90;;;;;;4977266;28;20026;-75
2021/06/09 03:17:59;;;;;;;4.63;3.07;;;17.30;76.30;;;;;;4972932;28;20106;-74
2021/06/09 03:20:47;;;;;;;5.65;3.13;;;17.40;76.60;;;;;;4970785;28;20026;-74
2021/06/09 03:23:34;;;;;;;3.53;2.75;;;17.40;77.10;;;;;;4976762;28;20034;-75
2021/06/09 03:26:07;;;;;;;4.35;3.10;;;17.40;76.90;;;;;;4976096;28;20532;-75
2021/06/09 03:28:43;;;;;;;4.25;3.00;;;17.30;76.70;;;;;;4958056;28;20034;-75
2021/06/09 03:31:15;;;;;;;6.47;3.53;;;17.40;76.80;;;;;;4975491;28;20066;-74
2021/06/09 03:33:46;;;;;;;5.47;3.28;;;17.40;76.70;;;;;;4971610;28;20027;-75
2021/06/09 03:36:22;;;;;;;4.10;2.97;;;17.40;77.00;;;;;;4974655;28;20034;-75
2021/06/09 03:38:59;;;;;;;4.47;3.25;;;17.30;76.70;;;;;;4976086;28;20490;-75
2021/06/09 03:41:32;;;;;;;4.30;3.30;;;17.40;77.00;;;;;;4973213;28;20041;-74
2021/06/09 03:44:00;;;;;;;3.40;2.65;;;17.40;77.10;;;;;;4979886;28;20034;-73
2021/06/09 03:46:27;;;;;;;4.97;3.35;;;17.40;77.30;;;;;;4975721;28;20035;-74
2021/06/09 03:48:54;;;;;;;5.05;2.95;;;17.40;77.20;;;;;;4974046;28;20500;-75
2021/06/09 03:51:22;;;;;;;4.07;3.03;;;17.40;77.00;;;;;;4973992;28;20038;-73
2021/06/09 03:53:49;;;;;;;5.28;3.03;;;17.40;77.10;;;;;;4976411;28;20086;-75
2021/06/09 03:56:17;;;;;;;3.42;2.78;;;17.40;77.50;;;;;;4976024;28;20105;-74
2021/06/09 03:58:44;;;;;;;5.78;2.90;;;17.40;77.30;;;;;;4979757;28;20033;-75
2021/06/09 04:01:11;;;;;;;3.72;3.05;;;17.40;77.70;;;;;;4972942;28;20105;-75
2021/06/09 04:03:40;;;;;;;4.65;3.08;;;17.40;77.50;;;;;;4957729;28;20035;-75
2021/06/09 04:06:10;;;;;;;4.10;2.90;;;17.50;77.50;;;;;;4975494;28;20022;-75
2021/06/09 04:08:38;;;;;;;5.00;3.15;;;17.40;77.50;;;;;;4975027;28;20478;-75
2021/06/09 04:11:05;;;;;;;4.65;3.08;;;17.50;77.60;;;;;;4975797;28;20073;-75
2021/06/09 04:13:33;;;;;;;4.78;3.25;;;17.50;77.60;;;;;;4974806;28;20027;-75
2021/06/09 04:16:01;;;;;;;3.92;3.13;;;17.50;77.60;;;;;;4973808;28;20081;-74
2021/06/09 04:18:29;;;;;;;4.32;2.80;;;17.50;77.40;;;;;;4974149;28;20535;-74
2021/06/09 04:20:56;;;;;;;5.05;2.85;;;17.50;77.30;;;;;;4974306;28;20034;-75
2021/06/09 04:23:22;;;;;;;3.70;2.45;;;17.50;77.10;;;;;;4972981;28;20042;-74
2021/06/09 04:25:48;;;;;;;4.05;2.45;;;17.50;77.00;;;;;;4973703;28;20115;-75
2021/06/09 04:28:19;;;;;;;4.57;2.38;;;17.60;76.70;;;;;;4974227;28;20114;-74
2021/06/09 04:30:45;;;;;;;4.40;2.67;;;17.60;76.50;;;;;;4973773;28;20389;-75
2021/06/09 04:33:12;;;;;;;2.65;2.20;;;17.60;76.40;;;;;;4973815;28;20664;-75
2021/06/09 04:35:44;;;;;;;4.05;2.50;;;17.70;76.10;;;;;;4955915;28;20058;-74
2021/06/09 04:38:16;;;;;;;3.63;1.92;;;17.70;76.10;;;;;;4973022;28;20118;-74
2021/06/09 04:40:43;;;;;;;3.47;2.47;;;17.70;75.90;;;;;;4974158;28;20145;-74
2021/06/09 04:43:09;;;;;;;3.65;2.15;;;17.70;75.70;;;;;;4973395;28;20031;-74
2021/06/09 04:45:36;;;;;;;4.43;2.20;;;17.80;75.70;;;;;;4977465;28;20077;-74
2021/06/09 04:48:08;;;;;;;4.20;2.40;;;17.90;75.40;;;;;;4972117;28;20025;-75
2021/06/09 04:50:34;;;;;;;2.88;2.13;;;17.90;75.10;;;;;;4973471;28;20110;-74
2021/06/09 04:53:12;;;;;;;3.78;2.40;;;17.90;74.80;;;;;;4973199;28;20173;-75
2021/06/09 04:55:49;;;;;;;7.47;2.25;;;17.90;74.50;;;;;;4975356;28;20041;-74
2021/06/09 04:58:17;;;;;;;3.10;2.20;;;17.90;74.30;;;;;;4980570;28;20034;-74
2021/06/09 05:00:44;;;;;;;3.67;2.17;;;18.00;74.00;;;;;;4972129;28;20053;-74
2021/06/09 05:03:10;;;;;;;3.40;2.13;;;18.10;73.40;;;;;;4972380;28;20062;-74
2021/06/09 05:05:37;;;;;;;4.05;2.13;;;18.10;73.60;;;;;;4972487;28;20062;-73
2021/06/09 05:08:03;;;;;;;7.07;2.70;;;18.10;72.80;;;;;;4971790;28;20031;-74
2021/06/09 05:10:29;;;;;;;3.92;2.13;;;18.10;73.10;;;;;;4974134;28;20027;-74
2021/06/09 05:13:05;;;;;;;4.80;2.17;;;18.20;72.10;;;;;;4974348;28;20039;-74
2021/06/09 05:15:36;;;;;;;3.38;1.98;;;18.30;70.90;;;;;;4954666;28;20120;-74
2021/06/09 05:18:08;;;;;;;2.95;1.98;;;18.20;70.30;;;;;;4972098;28;20035;-74
2021/06/09 05:20:37;;;;;;;3.58;1.85;;;18.20;69.80;;;;;;4972753;28;20030;-75
2021/06/09 05:23:08;;;;;;;2.95;2.13;;;18.30;68.90;;;;;;4970607;28;20119;-74
2021/06/09 05:25:36;;;;;;;1.90;1.50;;;18.30;69.10;;;;;;4981920;28;20035;-75
2021/06/09 05:28:05;;;;;;;2.75;1.98;;;18.30;66.60;;;;;;4975649;28;20023;-75
2021/06/09 05:30:32;;;;;;;5.50;1.83;;;18.40;65.00;;;;;;4973769;28;20026;-74
2021/06/09 05:32:59;;;;;;;6.88;1.50;;;18.30;65.40;;;;;;4971820;28;20113;-74
2021/06/09 05:35:25;;;;;;;2.80;1.35;;;18.40;65.70;;;;;;4974237;28;20031;-73
2021/06/09 05:37:52;;;;;;;1.75;1.45;;;18.40;66.20;;;;;;4972763;28;20049;-74
2021/06/09 05:40:20;;;;;;;3.35;1.55;;;18.40;66.70;;;;;;4972776;28;20050;-78
2021/06/09 05:42:46;;;;;;;3.63;2.42;;;18.40;67.00;;;;;;4955316;28;20489;-72
2021/06/09 05:45:13;;;;;;;3.38;2.60;;;18.50;67.00;;;;;;4971841;28;20154;-74
2021/06/09 05:47:45;;;;;;;5.55;2.60;;;18.50;67.30;;;;;;4971875;28;20043;-74
2021/06/09 05:50:18;;;;;;;7.00;3.50;;;18.50;67.10;;;;;;4971210;28;20449;-75
2021/06/09 05:52:49;;;;;;;5.00;2.78;;;18.60;66.90;;;;;;4952471;28;20055;-75
2021/06/09 05:55:16;;;;;;;;;;;18.70;66.50;;;;;;4971642;28;20027;-74
2021/06/09 05:57:43;;;;;;;5.03;2.22;;;18.70;65.60;;;;;;4971147;28;19918;-67
2021/06/09 06:00:10;;;;;;;2.40;1.70;;;18.70;65.10;;;;;;4972104;28;20030;-68
2021/06/09 06:02:38;;;;;;;3.70;1.70;;;18.80;65.00;;;;;;4970658;28;20054;-68
2021/06/09 06:05:08;;;;;;;3.50;1.80;;;18.80;65.30;;;;;;4969276;28;20125;-68
2021/06/09 06:07:34;;;;;;;3.50;1.80;;;18.90;64.90;;;;;;4959184;28;20023;-70
2021/06/09 06:10:05;;;;;;;3.35;1.48;;;18.90;65.00;;;;;;4962376;28;20058;-71
2021/06/09 06:12:31;;;;;;;2.85;1.90;;;18.90;65.40;;;;;;4967710;28;20045;-69
2021/06/09 06:14:58;;;;;;;1.80;1.50;;;19.10;63.60;;;;;;4972483;28;20027;-71
2021/06/09 06:17:23;;;;;;;1.65;1.45;;;19.10;64.00;;;;;;4968620;28;20026;-70
2021/06/09 06:19:50;;;;;;;2.75;1.63;;;19.10;63.90;;;;;;4970429;28;20346;-70
2021/06/09 06:22:18;;;;;;;2.85;1.20;;;19.10;64.10;;;;;;4970804;28;20069;-69
2021/06/09 06:24:46;;;;;;;7.13;1.95;;;19.20;64.20;;;;;;4972366;28;20033;-70
2021/06/09 06:27:13;;;;;;;2.42;1.77;;;19.30;63.10;;;;;;4975038;28;20034;-69
2021/06/09 06:29:40;;;;;;;4.35;1.65;;;19.30;63.40;;;;;;4976714;28;20031;-70
2021/06/09 06:32:12;;;;;;;2.95;1.38;;;19.40;63.50;;;;;;4975955;28;20109;-68
2021/06/09 06:34:51;;;;;;;3.80;1.88;;;19.40;64.10;;;;;;4975960;28;20045;-71
2021/06/09 06:37:20;;;;;;;5.03;1.92;;;19.40;63.50;;;;;;4975349;28;20598;-69
2021/06/09 06:39:46;;;;;;;3.45;1.67;;;19.50;62.80;;;;;;4974611;28;20400;-69
2021/06/09 06:42:12;;;;;;;4.55;1.95;;;19.50;62.70;;;;;;4971674;28;20038;-71
2021/06/09 06:44:43;;;;;;;6.50;2.20;;;19.70;61.10;;;;;;4968192;28;20030;-68
2021/06/09 06:47:11;;;;;;;5.10;1.90;;;19.70;62.20;;;;;;4972635;28;20042;-68
2021/06/09 06:49:37;;;;;;;2.13;1.80;;;19.90;60.00;;;;;;4973422;28;20062;-69
2021/06/09 06:52:04;;;;;;;3.53;1.80;;;20.00;60.60;;;;;;4978511;28;20138;-70
2021/06/09 06:54:30;;;;;;;4.22;1.33;;;20.00;61.40;;;;;;4973641;28;20515;-73
2021/06/09 06:56:57;;;;;;;3.75;1.33;;;20.00;61.40;;;;;;4975322;28;20090;-73
2021/06/09 06:59:26;;;;;;;3.20;1.83;;;20.00;61.80;;;;;;4973415;28;20039;-74
2021/06/09 07:01:52;;;;;;;4.15;1.38;;;20.10;62.10;;;;;;4973331;28;20984;-74
2021/06/09 07:04:20;;;;;;;4.25;1.73;;;20.10;62.60;;;;;;4974689;28;20035;-73
2021/06/09 07:06:48;;;;;;;7.35;2.20;;;20.10;61.70;;;;;;4961980;28;20031;-73
2021/06/09 07:09:16;;;;;;;4.03;1.88;;;20.20;60.90;;;;;;4964893;28;20090;-73
2021/06/09 07:11:43;;;;;;;4.47;1.63;;;20.30;60.80;;;;;;4973521;28;20514;-73
2021/06/09 07:14:10;;;;;;;4.65;2.00;;;20.30;61.60;;;;;;4975431;28;20038;-73
2021/06/09 07:16:39;;;;;;;4.35;1.75;;;20.40;61.80;;;;;;4974764;28;20035;-74
2021/06/09 07:19:10;;;;;;;3.15;1.40;;;20.40;60.90;;;;;;4976265;28;20035;-73
2021/06/09 07:21:38;;;;;;;4.15;2.42;;;20.50;62.00;;;;;;4972420;28;20039;-73
2021/06/09 07:24:04;;;;;;;4.85;1.55;;;20.50;62.90;;;;;;4974238;28;20087;-73
2021/06/09 07:26:34;;;;;;;2.78;1.63;;;20.60;60.30;;;;;;4974932;28;20105;-73
2021/06/09 07:29:01;;;;;;;4.95;2.00;;;20.60;59.00;;;;;;4972277;28;20176;-74
2021/06/09 07:31:30;;;;;;;5.93;2.05;;;20.70;60.00;;;;;;4974116;28;20507;-75
2021/06/09 07:33:56;;;;;;;4.93;1.60;;;20.70;59.30;;;;;;4974340;28;20036;-73
2021/06/09 07:36:43;;;;;;;3.88;1.50;;;20.70;59.60;;;;;;4974038;28;20082;-73
2021/06/09 07:39:17;;;;;;;3.20;1.75;;;20.80;58.50;;;;;;4971073;28;20110;-72
2021/06/09 07:41:44;;;;;;;9.32;1.40;;;20.90;59.00;;;;;;4973791;28;20037;-72
2021/06/09 07:44:12;;;;;;;3.47;1.60;;;20.90;59.60;;;;;;4974738;28;20039;-75
2021/06/09 07:46:39;;;;;;;2.70;1.33;;;20.90;59.70;;;;;;4973304;28;20030;-72
2021/06/09 07:49:09;;;;;;;3.65;1.70;;;21.00;57.50;;;;;;4974511;28;20269;-74
2021/06/09 07:51:36;;;;;;;2.42;1.55;;;21.00;57.80;;;;;;4971035;28;20141;-74
2021/06/09 07:54:03;;;;;;;2.83;1.60;;;21.00;59.00;;;;;;4972387;28;20097;-73
2021/06/09 07:56:35;;;;;;;2.92;1.90;;;21.10;58.90;;;;;;4971909;28;20393;-73
2021/06/09 07:59:05;;;;;;;1.73;1.00;;;21.10;59.70;;;;;;4974188;28;20113;-74
2021/06/09 08:01:32;;;;;;;2.10;1.20;;;21.20;57.40;;;;;;4970374;28;20035;-73
2021/06/09 08:03:59;;;;;;;3.33;1.17;;;21.30;56.00;;;;;;4971923;28;20031;-74
2021/06/09 08:06:25;;;;;;;1.92;1.30;;;21.30;56.50;;;;;;4972260;28;20038;-74
2021/06/09 08:08:51;;;;;;;21.83;1.73;;;21.40;56.80;;;;;;4971391;28;20397;-73
2021/06/09 08:11:17;;;;;;;3.53;1.17;;;21.50;55.20;;;;;;4961834;28;20027;-74
2021/06/09 08:13:44;;;;;;;3.90;1.60;;;21.50;56.50;;;;;;4971544;28;20042;-75
2021/06/09 08:16:18;;;;;;;2.42;1.48;;;21.60;55.80;;;;;;4971788;28;20030;-72
2021/06/09 08:18:45;;;;;;;2.03;1.40;;;21.60;57.40;;;;;;4972519;28;20034;-72
2021/06/09 08:21:14;;;;;;;2.88;1.17;;;21.60;57.40;;;;;;4971537;28;20043;-73
2021/06/09 08:23:51;;;;;;;2.13;1.30;;;21.60;57.00;;;;;;4977805;28;20042;-73
2021/06/09 08:26:19;;;;;;;3.15;1.48;;;21.70;56.90;;;;;;4953701;28;20035;-72
2021/06/09 08:28:46;;;;;;;2.63;1.38;;;21.80;56.20;;;;;;4970046;28;20037;-73
2021/06/09 08:31:14;;;;;;;1.95;1.30;;;21.90;56.50;;;;;;4971573;28;20058;-72
2021/06/09 08:33:41;;;;;;;4.22;1.35;;;21.90;56.90;;;;;;4978284;28;20109;-73
2021/06/09 08:36:08;;;;;;;2.45;1.38;;;21.80;56.70;;;;;;4971512;28;20045;-73
2021/06/09 08:38:35;;;;;;;1.55;1.10;;;21.90;55.70;;;;;;4972984;28;20047;-73
2021/06/09 08:41:02;;;;;;;2.33;1.23;;;22.00;55.30;;;;;;4969731;28;20056;-74
2021/06/09 08:43:28;;;;;;;2.33;1.20;;;22.00;56.20;;;;;;4971208;28;20631;-73
2021/06/09 08:45:55;;;;;;;3.72;1.67;;;22.10;55.00;;;;;;4971221;28;20070;-73
2021/06/09 08:48:20;;;;;;;4.55;1.50;;;22.10;53.40;;;;;;4970235;28;20038;-74
2021/06/09 08:50:48;;;;;;;3.35;1.33;;;22.10;53.70;;;;;;4971244;28;20405;-75
2021/06/09 08:53:22;;;;;;;2.65;1.30;;;22.20;54.20;;;;;;4972317;28;20031;-74
2021/06/09 08:55:50;;;;;;;3.53;1.35;;;22.40;53.40;;;;;;4970426;28;20034;-74
2021/06/09 08:58:16;;;;;;;3.78;1.33;;;22.40;54.80;;;;;;4972000;28;20045;-73
2021/06/09 09:00:44;;;;;;;1.67;1.20;;;22.50;55.30;;;;;;4970984;28;20054;-73
2021/06/09 09:03:10;;;;;;;2.85;1.30;;;22.60;55.40;;;;;;4975755;28;20038;-73
2021/06/09 09:05:36;;;;;;;2.78;1.30;;;22.60;55.90;;;;;;4969104;28;20027;-72
2021/06/09 09:08:04;;;;;;;4.10;1.60;;;22.60;55.80;;;;;;4971488;28;20039;-72
2021/06/09 09:10:30;;;;;;;2.28;1.20;;;22.60;56.00;;;;;;4971649;28;20041;-72
2021/06/09 09:12:56;;;;;;;1.73;1.30;;;22.60;56.20;;;;;;4972013;28;20080;-72
2021/06/09 09:15:22;;;;;;;1.98;1.30;;;22.60;56.90;;;;;;4973654;28;20023;-76
2021/06/09 09:18:00;;;;;;;4.93;1.60;;;22.60;57.20;;;;;;4972451;28;20109;-73
2021/06/09 09:20:28;;;;;;;2.58;1.35;;;22.80;57.40;;;;;;4971495;28;20031;-73
2021/06/09 09:22:58;;;;;;;3.53;1.67;;;22.90;55.10;;;;;;4972208;28;20057;-73
2021/06/09 09:25:27;;;;;;;3.75;1.42;;;23.00;54.50;;;;;;4953634;28;20486;-73
2021/06/09 09:28:04;;;;;;;3.67;1.50;;;23.20;54.60;;;;;;4968470;28;20034;-75
2021/06/09 09:30:33;;;;;;;2.05;1.40;;;23.30;55.20;;;;;;4964621;28;20030;-73
2021/06/09 09:33:15;;;;;;;3.08;1.65;;;23.30;55.00;;;;;;4975091;28;20035;-73
2021/06/09 09:35:44;;;;;;;3.83;1.77;;;23.40;52.60;;;;;;4970025;28;20051;-73
2021/06/09 09:38:27;;;;;;;3.78;1.52;;;23.30;54.10;;;;;;4970547;28;20074;-73
2021/06/09 09:41:05;;;;;;;3.40;1.60;;;23.20;55.00;;;;;;4974938;28;20054;-72
2021/06/09 09:44:02;;;;;;;1.55;1.35;;;23.30;54.40;;;;;;4971495;28;20038;-75
2021/06/09 09:46:35;;;;;;;4.53;1.58;;;23.30;54.60;;;;;;4971394;28;20039;-75
2021/06/09 09:49:11;;;;;;;2.28;1.65;;;23.40;54.50;;;;;;4969955;28;20370;-75
2021/06/09 09:51:56;;;;;;;3.25;1.80;;;23.50;54.00;;;;;;4971464;28;20034;-75
2021/06/09 09:54:27;;;;;;;2.53;1.83;;;23.50;54.50;;;;;;4970794;28;20038;-72
2021/06/09 09:56:54;;;;;;;3.10;2.10;;;23.60;53.70;;;;;;4971857;28;20022;-73
2021/06/09 09:59:23;;;;;;;3.42;2.08;;;23.60;54.10;;;;;;4968888;28;20121;-69
2021/06/09 10:01:51;;;;;;;3.65;1.80;;;23.60;54.60;;;;;;4969711;28;20354;-69
2021/06/09 10:04:19;;;;;;;2.28;2.08;;;23.60;55.20;;;;;;4972294;28;20041;-69
2021/06/09 10:06:47;;;;;;;3.53;1.85;;;23.60;55.00;;;;;;4971409;28;20101;-71
2021/06/09 10:09:21;;;;;;;2.90;1.83;;;23.60;53.60;;;;;;4973221;28;20041;-69
2021/06/09 10:12:03;;;;;;;2.90;1.67;;;23.60;53.10;;;;;;4970107;28;20042;-67
2021/06/09 10:14:32;;;;;;;1.98;1.50;;;23.70;52.10;;;;;;4970889;28;20058;-71
2021/06/09 10:17:00;;;;;;;2.90;1.40;;;23.70;52.90;;;;;;4970020;28;20034;-71
2021/06/09 10:19:48;;;;;;;1.67;1.50;;;23.70;53.50;;;;;;4978049;28;20085;-72
2021/06/09 10:22:22;;;;;;;3.78;2.00;;;23.80;50.90;;;;;;4970958;28;20090;-69
2021/06/09 10:24:58;;;;;;;2.45;1.98;;;23.80;51.60;;;;;;4971342;28;20038;-69
2021/06/09 10:27:48;;;;;;;2.42;1.80;;;23.80;52.10;;;;;;4971569;28;20098;-69
2021/06/09 10:30:17;;;;;;;2.67;1.83;;;23.80;53.00;;;;;;4964848;28;20498;-72
2021/06/09 10:32:45;;;;;;;1.42;1.30;;;23.80;50.60;;;;;;4976179;28;20035;-71
2021/06/09 10:35:11;;;;;;;1.40;1.30;;;23.80;51.80;;;;;;4969518;28;20027;-72
2021/06/09 10:37:37;;;;;;;3.10;1.63;;;23.70;51.30;;;;;;4952955;28;20029;-72
2021/06/09 10:40:04;;;;;;;2.78;2.20;;;23.60;52.00;;;;;;4970831;28;20053;-72
2021/06/09 10:42:31;;;;;;;3.08;2.20;;;23.60;52.50;;;;;;4971043;28;20038;-69
2021/06/09 10:44:58;;;;;;;5.32;1.98;;;23.60;52.50;;;;;;4970022;28;20026;-70
2021/06/09 10:47:28;;;;;;;2.33;1.95;;;23.60;53.30;;;;;;4970093;28;20031;-70
2021/06/09 10:49:54;;;;;;;5.18;2.20;;;23.60;55.10;;;;;;4966018;28;20039;-71
2021/06/09 10:52:22;;;;;;;6.65;3.65;;;23.70;53.00;;;;;;4967107;28;20089;-74
2021/06/09 10:54:48;;;;;;;8.32;2.90;;;23.70;52.90;;;;;;4973480;28;20037;-72
2021/06/09 10:57:15;;;;;;;104.45;50.80;;;23.70;51.90;;;;;;4967348;28;20057;-77
2021/06/09 10:59:42;;;;;;;107.03;57.78;;;23.80;53.20;;;;;;4971501;28;20030;-76
2021/06/09 11:02:21;;;;;;;15.88;10.00;;;23.80;54.00;;;;;;4961756;28;20058;-75
2021/06/09 11:05:03;;;;;;;5.25;4.25;;;23.90;52.80;;;;;;4973656;28;20482;-74
2021/06/09 11:07:33;;;;;;;16.80;10.70;;;24.10;50.90;;;;;;4959175;28;20462;-76
2021/06/09 11:10:01;;;;;;;10.07;5.38;;;24.20;51.10;;;;;;4967296;28;20369;-74
2021/06/09 11:12:36;;;;;;;27.10;16.17;;;24.30;51.30;;;;;;4962002;28;20031;-75
2021/06/09 11:15:09;;;;;;;8.25;5.88;;;24.30;52.40;;;;;;4977153;28;20034;-75
2021/06/09 11:17:37;;;;;;;5.30;3.65;;;24.30;53.10;;;;;;4985128;28;20046;-76
2021/06/09 11:20:39;;;;;;;2.88;2.53;;;24.40;52.00;;;;;;4974555;28;20084;-75
2021/06/09 11:23:23;;;;;;;4.35;2.47;;;24.50;50.60;;;;;;4973487;28;20041;-74
2021/06/09 11:25:49;;;;;;;3.63;2.90;;;24.60;51.60;;;;;;4978179;28;20054;-74
2021/06/09 11:28:17;;;;;;;3.65;2.60;;;24.70;52.10;;;;;;4972422;28;20022;-74
2021/06/09 11:30:53;;;;;;;3.80;2.47;;;24.80;52.30;;;;;;4972858;28;20098;-75
2021/06/09 11:33:36;;;;;;;2.80;2.33;;;25.00;51.60;;;;;;4968087;28;20034;-74
2021/06/09 11:36:12;;;;;;;5.07;2.70;;;25.30;52.60;;;;;;4974570;28;20030;-75
2021/06/09 11:38:59;;;;;;;4.38;2.90;;;25.70;50.40;;;;;;4973094;28;20503;-76
2021/06/09 11:41:42;;;;;;;3.08;2.42;;;25.90;47.70;;;;;;4972771;28;20046;-75
2021/06/09 11:44:31;;;;;;;5.25;3.08;;;26.20;49.50;;;;;;4975041;28;20035;-75
2021/06/09 11:47:17;;;;;;;7.10;2.35;;;26.80;49.70;;;;;;4968987;28;20039;-74
2021/06/09 11:49:43;;;;;;;2.92;2.58;;;27.70;47.70;;;;;;4980870;28;20038;-76
2021/06/09 11:52:09;;;;;;;3.38;2.90;;;28.70;43.90;;;;;;4975345;28;20053;-77
2021/06/09 11:54:36;;;;;;;3.00;2.70;;;29.90;43.40;;;;;;4957122;28;20454;-77
2021/06/09 11:57:17;;;;;;;3.08;2.88;;;30.80;41.40;;;;;;4970629;28;20373;-76
2021/06/09 11:59:43;;;;;;;3.10;2.80;;;31.60;40.40;;;;;;4956051;28;20018;-76
2021/06/09 12:02:18;;;;;;;4.55;2.47;;;32.20;39.30;;;;;;4972374;28;20401;-76
2021/06/09 12:04:45;;;;;;;3.25;2.50;;;32.70;38.40;;;;;;4954810;28;20485;-75
2021/06/09 12:07:26;;;;;;;4.07;3.00;;;33.00;37.10;;;;;;4971666;28;20039;-75
2021/06/09 12:09:59;;;;;;;3.80;2.92;;;33.50;36.80;;;;;;4972072;28;20039;-75
2021/06/09 12:12:29;;;;;;;4.22;3.33;;;33.70;36.70;;;;;;4972672;28;20035;-76
2021/06/09 12:14:57;;;;;;;4.15;3.20;;;33.70;36.80;;;;;;4972500;28;20035;-76
2021/06/09 12:17:29;;;;;;;4.32;3.17;;;33.80;34.00;;;;;;4969805;28;20037;-76
2021/06/09 12:20:12;;;;;;;3.22;2.92;;;33.70;34.20;;;;;;4970965;28;20019;-75
2021/06/09 12:22:49;;;;;;;3.08;2.78;;;33.20;35.90;;;;;;4971778;28;20027;-75
2021/06/09 12:25:26;;;;;;;3.20;2.70;;;32.80;36.70;;;;;;4954793;28;20055;-76
2021/06/09 12:28:10;;;;;;;3.25;2.65;;;32.50;35.50;;;;;;4972522;28;20038;-76
2021/06/09 12:30:40;;;;;;;4.18;2.72;;;32.40;37.00;;;;;;4973474;28;20027;-76
2021/06/09 12:33:06;;;;;;;3.05;2.67;;;32.10;35.50;;;;;;4977288;28;20022;-76
2021/06/09 12:35:33;;;;;;;3.25;2.95;;;31.60;38.00;;;;;;4962084;28;20086;-75
2021/06/09 12:38:04;;;;;;;3.55;2.92;;;31.70;37.60;;;;;;4969221;28;20061;-74
2021/06/09 12:40:33;;;;;;;4.15;2.97;;;32.00;38.00;;;;;;4967194;28;20023;-76
2021/06/09 12:43:01;;;;;;;2.95;2.75;;;32.30;37.90;;;;;;4971197;28;20026;-75
2021/06/09 12:45:30;;;;;;;3.58;2.90;;;32.80;37.80;;;;;;4971415;28;20564;-75
2021/06/09 12:48:04;;;;;;;3.72;2.40;;;33.20;36.10;;;;;;4969732;28;20097;-75
2021/06/09 12:50:39;;;;;;;4.47;2.60;;;33.50;34.90;;;;;;4972839;28;20034;-76
2021/06/09 12:53:28;;;;;;;2.95;2.58;;;33.30;35.00;;;;;;4970422;28;20081;-76
2021/06/09 12:56:06;;;;;;;2.85;2.63;;;32.80;36.40;;;;;;4973325;28;20031;-75
2021/06/09 12:58:33;;;;;;;4.10;2.35;;;32.10;35.30;;;;;;4954421;28;20023;-75
2021/06/09 13:01:02;;;;;;;3.38;3.10;;;32.20;36.60;;;;;;4972979;28;20118;-77